Time;durP1;ratioP1;P1;durP2;ratioP2;P2;SDS_P1;SDS_P2;PMS_P1;PMS_P2;Temp;Humidity;BMP_temperature;BMP_pressure;BME280_temperature;BME280_humidity;BME280_pressure;Samples;Min_cycle;Max_cycle;Signal;HPM_P1;HPM_P2
2022/03/14 00:02:15;;;;;;;17.77;11.80;;;11.10;71.40;;;;;;4984926;28;20410;-72
2022/03/14 00:04:41;;;;;;;16.13;11.27;;;11.30;73.40;;;;;;4988300;28;20090;-72
2022/03/14 00:07:06;;;;;;;12.18;9.82;;;11.40;75.70;;;;;;4987989;28;20102;-72
2022/03/14 00:09:32;;;;;;;14.43;9.90;;;11.40;80.50;;;;;;4986253;28;20167;-72
2022/03/14 00:11:58;;;;;;;14.27;10.82;;;11.60;87.10;;;;;;4994042;28;20124;-72
2022/03/14 00:14:27;;;;;;;13.90;9.25;;;11.70;91.30;;;;;;4984975;28;20090;-72
2022/03/14 00:16:54;;;;;;;11.25;8.70;;;11.60;95.60;;;;;;4986116;28;20101;-72
2022/03/14 00:19:22;;;;;;;10.60;8.52;;;11.70;99.70;;;;;;4985074;28;20050;-72
2022/03/14 00:21:49;;;;;;;11.38;8.18;;;11.70;99.90;;;;;;4986607;28;20047;-72
2022/03/14 00:24:15;;;;;;;10.68;8.23;;;11.80;99.90;;;;;;4984766;28;20051;-72
2022/03/14 00:26:41;;;;;;;11.82;8.55;;;11.70;99.90;;;;;;4989017;28;20069;-72
2022/03/14 00:29:08;;;;;;;12.73;8.52;;;11.60;99.90;;;;;;4968322;28;20047;-72
2022/03/14 00:31:34;;;;;;;12.13;8.90;;;11.60;99.90;;;;;;4988018;28;20055;-72
2022/03/14 00:34:00;;;;;;;11.70;8.90;;;11.50;99.90;;;;;;4987602;28;20491;-72
2022/03/14 00:36:27;;;;;;;12.60;8.43;;;11.30;99.90;;;;;;4991760;28;20073;-72
2022/03/14 00:38:53;;;;;;;11.90;8.07;;;11.20;99.90;;;;;;4984208;28;20103;-72
2022/03/14 00:41:19;;;;;;;11.90;7.93;;;11.10;99.90;;;;;;4979157;28;20055;-72
2022/03/14 00:43:46;;;;;;;10.85;7.65;;;11.10;99.90;;;;;;4985419;28;20114;-72
2022/03/14 00:46:12;;;;;;;11.23;8.00;;;10.90;99.90;;;;;;4983735;28;20047;-72
2022/03/14 00:48:38;;;;;;;12.02;8.38;;;10.80;99.90;;;;;;4986168;28;20058;-72
2022/03/14 00:51:05;;;;;;;10.55;7.45;;;10.90;99.90;;;;;;4989728;28;20038;-72
2022/03/14 00:53:31;;;;;;;11.27;8.70;;;10.90;99.90;;;;;;4985597;28;20070;-72
2022/03/14 00:55:59;;;;;;;9.80;7.45;;;10.80;99.90;;;;;;4991635;28;20058;-72
2022/03/14 00:58:26;;;;;;;10.77;7.25;;;10.80;99.90;;;;;;4984507;28;20042;-72
2022/03/14 01:00:52;;;;;;;9.90;7.18;;;10.80;99.90;;;;;;4984770;28;20086;-72
2022/03/14 01:03:18;;;;;;;9.68;7.25;;;11.00;99.90;;;;;;4983675;28;20089;-72
2022/03/14 01:05:44;;;;;;;10.65;7.05;;;11.00;99.90;;;;;;4984035;28;20055;-72
2022/03/14 01:08:10;;;;;;;9.77;7.50;;;11.00;99.90;;;;;;4985447;28;20110;-72
2022/03/14 01:10:36;;;;;;;9.50;7.57;;;10.90;99.90;;;;;;4992589;28;20055;-72
2022/03/14 01:13:03;;;;;;;9.35;6.90;;;10.90;99.90;;;;;;4986362;28;20086;-72
2022/03/14 01:15:29;;;;;;;9.20;6.53;;;10.90;99.90;;;;;;4988524;28;20073;-72
2022/03/14 01:17:56;;;;;;;8.13;6.57;;;10.90;99.90;;;;;;4983524;28;20063;-72
2022/03/14 01:20:22;;;;;;;7.82;6.03;;;11.00;99.90;;;;;;4984948;28;20047;-72
2022/03/14 01:22:47;;;;;;;10.20;6.05;;;11.00;99.90;;;;;;4989344;28;20384;-72
2022/03/14 01:25:13;;;;;;;7.40;6.25;;;11.00;99.90;;;;;;4989408;28;20050;-72
2022/03/14 01:27:39;;;;;;;6.97;5.53;;;10.90;99.90;;;;;;4992515;28;20050;-72
2022/03/14 01:30:05;;;;;;;6.90;5.47;;;10.90;99.90;;;;;;4992156;28;20053;-72
2022/03/14 01:32:31;;;;;;;7.80;5.57;;;10.80;99.90;;;;;;4989019;28;20054;-73
2022/03/14 01:34:56;;;;;;;6.50;5.13;;;10.80;99.90;;;;;;4989090;28;20046;-72
2022/03/14 01:37:22;;;;;;;7.90;5.55;;;10.80;99.90;;;;;;4990436;28;20041;-72
2022/03/14 01:39:48;;;;;;;6.45;4.60;;;10.80;99.90;;;;;;4989421;28;20042;-72
2022/03/14 01:42:20;;;;;;;6.90;4.57;;;10.90;99.90;;;;;;4988220;28;20038;-72
2022/03/14 01:44:47;;;;;;;7.22;4.80;;;10.80;99.90;;;;;;4988220;28;20046;-72
2022/03/14 01:47:17;;;;;;;5.38;4.30;;;10.80;99.90;;;;;;4992533;28;20047;-72
2022/03/14 01:49:44;;;;;;;5.65;4.32;;;10.80;99.90;;;;;;4988617;28;20038;-72
2022/03/14 01:52:10;;;;;;;7.80;4.75;;;10.80;99.90;;;;;;4983733;28;20057;-72
2022/03/14 01:54:37;;;;;;;8.38;4.70;;;10.80;99.90;;;;;;4988866;28;20063;-72
2022/03/14 01:57:05;;;;;;;5.55;4.68;;;10.70;99.90;;;;;;4990550;28;20046;-72
2022/03/14 01:59:31;;;;;;;5.90;4.00;;;10.80;99.90;;;;;;4987619;28;20046;-72
2022/03/14 02:01:57;;;;;;;5.88;4.22;;;10.80;99.90;;;;;;4991169;28;20052;-72
2022/03/14 02:04:23;;;;;;;6.05;4.80;;;10.70;99.90;;;;;;4992503;28;20101;-72
2022/03/14 02:06:52;;;;;;;6.65;4.30;;;10.70;99.90;;;;;;4987127;28;20125;-72
2022/03/14 02:09:19;;;;;;;6.18;4.72;;;10.70;99.90;;;;;;4991539;28;20034;-72
2022/03/14 02:12:12;;;;;;;5.35;3.85;;;10.60;99.90;;;;;;4987398;28;20525;-72
2022/03/14 02:14:41;;;;;;;5.20;3.97;;;10.60;99.90;;;;;;4986698;28;20110;-72
2022/03/14 02:17:15;;;;;;;5.82;4.30;;;10.70;99.90;;;;;;4993569;28;20134;-72
2022/03/14 02:19:41;;;;;;;4.90;3.70;;;10.70;99.90;;;;;;4988544;28;20404;-72
2022/03/14 02:22:13;;;;;;;5.40;4.28;;;10.80;99.90;;;;;;4987900;28;20131;-72
2022/03/14 02:24:43;;;;;;;6.38;4.13;;;10.80;99.90;;;;;;4982753;28;20094;-72
2022/03/14 02:27:11;;;;;;;5.85;3.95;;;10.80;99.90;;;;;;4988123;28;20053;-72
2022/03/14 02:29:38;;;;;;;5.88;4.30;;;10.90;99.90;;;;;;4987883;28;20078;-72
2022/03/14 02:32:05;;;;;;;4.40;3.63;;;10.90;99.90;;;;;;4989676;28;20059;-72
2022/03/14 02:34:30;;;;;;;4.40;3.90;;;10.90;99.90;;;;;;4983128;28;20058;-72
2022/03/14 02:36:56;;;;;;;4.57;3.60;;;10.90;99.90;;;;;;4989694;28;20054;-72
2022/03/14 02:39:22;;;;;;;5.35;3.90;;;11.00;99.90;;;;;;4991605;28;20050;-72
2022/03/14 02:41:48;;;;;;;5.07;3.95;;;11.00;99.90;;;;;;4987173;28;20058;-72
2022/03/14 02:44:13;;;;;;;8.15;5.30;;;11.00;99.90;;;;;;4985571;28;20046;-72
2022/03/14 02:46:40;;;;;;;4.90;4.07;;;11.10;99.90;;;;;;4987443;28;20058;-72
2022/03/14 02:49:10;;;;;;;4.18;3.45;;;11.00;99.90;;;;;;4986005;28;20043;-72
2022/03/14 02:51:41;;;;;;;4.80;3.75;;;11.10;99.90;;;;;;4986226;28;20054;-72
2022/03/14 02:54:09;;;;;;;5.15;4.28;;;11.20;99.90;;;;;;4987132;28;20051;-72
2022/03/14 02:56:40;;;;;;;4.63;3.75;;;11.20;99.90;;;;;;4987070;28;20065;-72
2022/03/14 02:59:07;;;;;;;4.88;3.67;;;11.20;99.90;;;;;;4986424;28;20180;-72
2022/03/14 03:01:36;;;;;;;5.43;3.80;;;11.20;99.90;;;;;;4991011;28;20514;-72
2022/03/14 03:04:02;;;;;;;4.97;3.88;;;11.30;99.90;;;;;;4987728;28;20050;-72
2022/03/14 03:06:28;;;;;;;5.07;4.00;;;11.30;99.90;;;;;;4987371;28;20043;-72
2022/03/14 03:08:54;;;;;;;5.45;4.38;;;11.10;99.90;;;;;;4989822;28;20134;-72
2022/03/14 03:11:21;;;;;;;6.65;4.80;;;11.00;99.90;;;;;;4985709;28;20090;-72
2022/03/14 03:13:48;;;;;;;6.05;4.53;;;10.80;99.90;;;;;;4985985;28;20106;-72
2022/03/14 03:16:15;;;;;;;5.57;4.70;;;10.60;99.90;;;;;;4968982;28;20059;-72
2022/03/14 03:18:45;;;;;;;6.32;5.53;;;10.50;99.90;;;;;;4982915;28;20043;-72
2022/03/14 03:21:11;;;;;;;6.25;4.65;;;10.40;99.90;;;;;;4989388;28;20062;-72
2022/03/14 03:23:38;;;;;;;6.25;5.25;;;10.30;99.90;;;;;;4987843;28;20111;-72
2022/03/14 03:26:04;;;;;;;6.80;5.00;;;10.20;99.90;;;;;;4987019;28;20078;-72
2022/03/14 03:28:36;;;;;;;5.00;4.45;;;10.20;99.90;;;;;;4986465;28;20055;-72
2022/03/14 03:31:18;;;;;;;6.40;4.60;;;10.20;99.90;;;;;;4985952;28;20066;-72
2022/03/14 03:33:45;;;;;;;5.40;4.20;;;10.20;99.90;;;;;;4978798;28;20050;-72
2022/03/14 03:36:10;;;;;;;5.93;4.85;;;10.20;99.90;;;;;;4990810;28;20137;-72
2022/03/14 03:38:37;;;;;;;5.15;3.95;;;10.30;99.90;;;;;;4994482;28;20480;-72
2022/03/14 03:41:03;;;;;;;5.60;4.43;;;10.30;99.90;;;;;;4991955;28;20089;-72
2022/03/14 03:43:29;;;;;;;5.30;4.50;;;10.30;99.90;;;;;;4986570;28;20068;-72
2022/03/14 03:45:55;;;;;;;6.07;4.57;;;10.30;99.90;;;;;;4984466;28;20106;-72
2022/03/14 03:48:21;;;;;;;6.13;4.03;;;10.30;99.90;;;;;;4985042;28;20217;-72
2022/03/14 03:50:47;;;;;;;7.07;5.00;;;10.30;99.90;;;;;;4986661;28;20050;-72
2022/03/14 03:53:13;;;;;;;6.18;4.75;;;10.30;99.90;;;;;;4986798;28;20490;-72
2022/03/14 03:55:39;;;;;;;5.20;4.47;;;10.20;99.90;;;;;;4986928;28;20055;-72
2022/03/14 03:58:05;;;;;;;6.93;5.32;;;10.20;99.90;;;;;;4991052;28;20051;-72
2022/03/14 04:00:31;;;;;;;6.30;5.10;;;10.10;99.90;;;;;;4984996;28;20046;-72
2022/03/14 04:02:58;;;;;;;6.93;5.40;;;10.00;99.90;;;;;;4985390;28;20050;-72
2022/03/14 04:05:27;;;;;;;6.35;4.95;;;10.00;99.90;;;;;;4985173;28;20050;-72
2022/03/14 04:07:57;;;;;;;6.82;5.57;;;10.00;99.90;;;;;;4966940;28;20039;-71
2022/03/14 04:10:27;;;;;;;;;;;10.10;99.90;;;;;;4989597;28;20047;-72
2022/03/14 04:12:53;;;;;;;6.90;5.07;;;10.20;99.90;;;;;;4985255;28;19922;-72
2022/03/14 04:15:22;;;;;;;7.10;5.05;;;10.20;99.90;;;;;;4985916;28;20046;-71
2022/03/14 04:17:48;;;;;;;6.53;4.85;;;10.20;99.90;;;;;;4991370;28;20055;-71
2022/03/14 04:20:13;;;;;;;5.93;5.13;;;10.20;99.90;;;;;;4986919;28;20073;-71
2022/03/14 04:22:39;;;;;;;6.10;4.55;;;10.20;99.90;;;;;;4988173;28;20082;-71
2022/03/14 04:25:07;;;;;;;6.72;4.70;;;10.30;99.90;;;;;;4989738;28;20086;-71
2022/03/14 04:27:33;;;;;;;5.10;3.65;;;10.40;99.90;;;;;;4987922;28;20065;-72
2022/03/14 04:29:59;;;;;;;5.50;3.65;;;10.50;99.90;;;;;;4987125;28;20054;-72
2022/03/14 04:32:26;;;;;;;3.90;3.50;;;10.50;99.90;;;;;;4986840;28;20050;-71
2022/03/14 04:34:52;;;;;;;4.93;3.70;;;10.50;99.90;;;;;;4986109;28;20467;-71
2022/03/14 04:37:19;;;;;;;4.28;3.47;;;10.70;99.90;;;;;;4986532;28;20042;-71
2022/03/14 04:39:46;;;;;;;4.65;3.33;;;10.60;99.90;;;;;;4982893;28;20050;-71
2022/03/14 04:42:12;;;;;;;4.47;3.38;;;10.60;99.90;;;;;;4986011;28;20139;-71
2022/03/14 04:44:38;;;;;;;4.95;3.83;;;10.60;99.90;;;;;;4986040;28;20423;-71
2022/03/14 04:47:04;;;;;;;5.07;3.72;;;10.70;99.90;;;;;;4984736;28;20046;-71
2022/03/14 04:49:30;;;;;;;5.00;3.80;;;10.60;99.90;;;;;;4986416;28;20070;-71
2022/03/14 04:51:56;;;;;;;4.38;3.60;;;10.60;99.90;;;;;;4990520;28;20074;-71
2022/03/14 04:54:22;;;;;;;4.93;4.00;;;10.60;99.90;;;;;;4986446;28;20070;-71
2022/03/14 04:56:48;;;;;;;4.07;3.53;;;10.60;99.90;;;;;;4987053;28;20069;-71
2022/03/14 04:59:14;;;;;;;5.25;3.72;;;10.70;99.90;;;;;;4996366;28;20046;-71
2022/03/14 05:01:40;;;;;;;4.93;3.88;;;10.60;99.90;;;;;;4990298;28;20086;-71
2022/03/14 05:04:07;;;;;;;5.70;4.32;;;10.60;99.90;;;;;;4988923;28;20046;-71
2022/03/14 05:06:32;;;;;;;5.32;3.95;;;10.60;99.90;;;;;;4990679;28;20046;-71
2022/03/14 05:08:58;;;;;;;5.88;3.80;;;10.50;99.90;;;;;;4988961;28;20557;-71
2022/03/14 05:11:25;;;;;;;4.70;3.80;;;10.50;99.90;;;;;;4993981;28;20446;-71
2022/03/14 05:13:51;;;;;;;5.03;3.70;;;10.50;99.90;;;;;;4990541;28;20046;-71
2022/03/14 05:16:17;;;;;;;5.25;3.53;;;10.60;99.90;;;;;;4992843;28;20055;-71
2022/03/14 05:18:43;;;;;;;5.15;3.50;;;10.70;99.90;;;;;;4983395;28;20038;-71
2022/03/14 05:21:09;;;;;;;4.82;3.78;;;10.80;99.90;;;;;;4988741;28;20081;-71
2022/03/14 05:23:35;;;;;;;4.63;3.55;;;10.80;99.90;;;;;;4987735;28;20070;-71
2022/03/14 05:26:01;;;;;;;4.50;3.63;;;11.00;99.90;;;;;;4989287;28;20055;-71
2022/03/14 05:28:26;;;;;;;4.50;3.58;;;10.90;99.90;;;;;;4990542;28;20069;-71
2022/03/14 05:30:53;;;;;;;5.10;3.75;;;10.90;99.90;;;;;;4992115;28;20106;-71
2022/03/14 05:33:19;;;;;;;5.55;3.60;;;11.00;99.90;;;;;;4991434;28;20047;-70
2022/03/14 05:35:45;;;;;;;5.38;3.97;;;11.00;99.90;;;;;;4951868;28;20051;-71
2022/03/14 05:38:10;;;;;;;5.65;3.80;;;10.90;99.90;;;;;;4968960;28;20081;-71
2022/03/14 05:40:36;;;;;;;5.18;3.78;;;10.90;99.90;;;;;;4972721;28;20130;-70
2022/03/14 05:43:09;;;;;;;5.50;4.35;;;11.00;99.90;;;;;;4972422;28;20568;-71
2022/03/14 05:45:35;;;;;;;6.78;4.13;;;11.00;99.90;;;;;;4976213;28;20054;-72
2022/03/14 05:48:01;;;;;;;5.10;4.43;;;10.90;99.90;;;;;;4991437;28;20576;-70
2022/03/14 05:50:27;;;;;;;5.13;4.57;;;11.10;99.90;;;;;;4985459;28;20223;-71
2022/03/14 05:52:54;;;;;;;5.13;3.90;;;10.90;99.90;;;;;;4992802;28;20061;-71
2022/03/14 05:55:19;;;;;;;5.03;4.05;;;11.00;99.90;;;;;;4986486;28;20117;-71
2022/03/14 05:57:45;;;;;;;6.30;4.43;;;11.00;99.90;;;;;;4994857;28;20069;-72
2022/03/14 06:00:13;;;;;;;4.93;4.13;;;11.00;99.90;;;;;;4984999;28;20050;-72
2022/03/14 06:02:45;;;;;;;6.55;4.22;;;11.00;99.90;;;;;;4994174;28;20570;-71
2022/03/14 06:05:10;;;;;;;4.43;3.67;;;10.90;99.90;;;;;;4987949;28;20089;-72
2022/03/14 06:07:36;;;;;;;5.25;3.88;;;10.90;99.90;;;;;;4984079;28;20046;-71
2022/03/14 06:10:02;;;;;;;6.47;4.20;;;11.00;99.90;;;;;;4983395;28;20186;-71
2022/03/14 06:12:30;;;;;;;5.22;4.13;;;11.00;99.90;;;;;;4989276;28;20058;-71
2022/03/14 06:14:58;;;;;;;5.00;4.07;;;10.80;99.90;;;;;;4971480;28;20051;-72
2022/03/14 06:17:24;;;;;;;5.30;4.40;;;10.90;99.90;;;;;;4957274;28;20041;-71
2022/03/14 06:19:50;;;;;;;5.28;4.05;;;10.80;99.90;;;;;;4982889;28;20080;-70
2022/03/14 06:22:21;;;;;;;6.47;4.40;;;10.90;99.90;;;;;;4990998;28;20038;-71
2022/03/14 06:24:48;;;;;;;5.90;4.38;;;10.80;99.90;;;;;;4978725;28;20088;-70
2022/03/14 06:27:15;;;;;;;6.28;4.88;;;10.80;99.90;;;;;;5000510;28;20045;-71
2022/03/14 06:29:42;;;;;;;6.00;4.13;;;11.00;99.90;;;;;;4982031;28;20050;-70
2022/03/14 06:32:08;;;;;;;5.78;4.70;;;11.00;99.90;;;;;;4999547;28;20289;-71
2022/03/14 06:34:33;;;;;;;7.30;4.70;;;10.80;99.90;;;;;;4957610;28;20142;-71
2022/03/14 06:36:59;;;;;;;5.55;4.70;;;10.70;99.90;;;;;;4986285;28;20070;-71
2022/03/14 06:39:25;;;;;;;5.53;4.05;;;10.80;99.90;;;;;;4977934;28;20272;-70
2022/03/14 06:41:51;;;;;;;7.80;5.07;;;10.70;99.90;;;;;;5005580;28;20344;-70
2022/03/14 06:44:18;;;;;;;6.00;4.57;;;10.70;99.90;;;;;;4989520;28;20047;-70
2022/03/14 06:46:44;;;;;;;5.65;4.80;;;10.80;99.90;;;;;;4953652;28;20557;-70
2022/03/14 06:49:13;;;;;;;7.25;5.13;;;10.70;99.90;;;;;;4991241;28;20047;-70
2022/03/14 06:51:42;;;;;;;6.63;4.97;;;10.60;99.90;;;;;;4986855;28;20050;-70
2022/03/14 06:54:09;;;;;;;6.35;5.47;;;10.70;99.90;;;;;;4987413;28;20047;-71
2022/03/14 06:56:37;;;;;;;9.65;5.78;;;10.80;99.90;;;;;;4996436;28;20281;-70
2022/03/14 06:59:03;;;;;;;7.55;5.13;;;10.80;99.90;;;;;;4986156;28;20042;-72
2022/03/14 07:01:30;;;;;;;6.28;5.13;;;10.70;99.90;;;;;;4970479;28;20146;-71
2022/03/14 07:03:56;;;;;;;7.30;5.80;;;10.60;99.90;;;;;;4984961;28;20403;-70
2022/03/14 07:06:22;;;;;;;8.98;5.60;;;10.70;99.90;;;;;;4987034;28;20073;-70
2022/03/14 07:08:48;;;;;;;6.35;5.55;;;10.70;99.90;;;;;;4978934;28;20062;-71
2022/03/14 07:11:13;;;;;;;8.30;5.93;;;10.80;99.90;;;;;;4984426;28;20054;-71
2022/03/14 07:13:39;;;;;;;7.38;6.20;;;10.70;99.90;;;;;;4982129;28;20129;-71
2022/03/14 07:16:05;;;;;;;8.50;6.07;;;10.70;99.90;;;;;;4987621;28;20053;-71
2022/03/14 07:18:31;;;;;;;7.90;5.45;;;10.70;99.90;;;;;;4989046;28;20050;-71
2022/03/14 07:20:57;;;;;;;7.57;5.53;;;10.60;99.90;;;;;;4982440;28;20076;-71
2022/03/14 07:23:23;;;;;;;6.70;5.80;;;10.60;99.90;;;;;;4988582;28;20066;-71
2022/03/14 07:25:51;;;;;;;7.32;5.65;;;10.60;99.90;;;;;;4985312;28;20081;-71
2022/03/14 07:28:18;;;;;;;7.50;5.32;;;10.70;99.90;;;;;;4984408;28;20311;-71
2022/03/14 07:30:45;;;;;;;6.70;5.93;;;10.60;99.90;;;;;;4980302;28;20066;-71
2022/03/14 07:33:11;;;;;;;11.68;6.50;;;10.60;99.90;;;;;;4978328;28;20053;-71
2022/03/14 07:35:37;;;;;;;7.97;6.00;;;10.60;99.90;;;;;;4956465;28;20078;-71
2022/03/14 07:38:04;;;;;;;7.70;6.35;;;10.60;99.90;;;;;;4987452;28;20046;-71
2022/03/14 07:40:31;;;;;;;7.63;6.35;;;10.70;99.90;;;;;;4979945;28;20046;-71
2022/03/14 07:42:58;;;;;;;8.57;6.22;;;10.60;99.90;;;;;;4978731;28;20371;-71
2022/03/14 07:45:25;;;;;;;7.97;6.40;;;10.60;99.90;;;;;;4971744;28;20042;-71
2022/03/14 07:47:52;;;;;;;7.90;6.25;;;10.50;99.90;;;;;;4981461;28;20050;-70
2022/03/14 07:50:18;;;;;;;8.50;6.65;;;10.50;99.90;;;;;;4971280;28;20542;-71
2022/03/14 07:52:45;;;;;;;9.13;6.90;;;10.40;99.90;;;;;;4993159;28;20424;-71
2022/03/14 07:55:12;;;;;;;9.27;6.65;;;10.40;99.90;;;;;;4971918;28;20038;-71
2022/03/14 07:57:39;;;;;;;9.43;6.88;;;10.50;99.90;;;;;;4982090;28;20570;-68
2022/03/14 08:00:08;;;;;;;8.40;6.80;;;10.50;99.90;;;;;;4972043;28;20150;-69
2022/03/14 08:02:34;;;;;;;8.40;7.00;;;10.50;99.90;;;;;;4985547;28;20270;-69
2022/03/14 08:05:00;;;;;;;10.07;6.53;;;10.50;99.90;;;;;;4979229;28;20286;-71
2022/03/14 08:07:26;;;;;;;9.07;6.82;;;10.70;99.90;;;;;;4979201;28;20061;-69
2022/03/14 08:09:53;;;;;;;8.15;6.78;;;10.70;99.90;;;;;;4975240;28;20054;-69
2022/03/14 08:12:20;;;;;;;8.60;6.85;;;10.70;99.90;;;;;;4978071;28;20147;-69
2022/03/14 08:14:47;;;;;;;9.13;7.15;;;10.70;99.90;;;;;;4973523;28;20085;-69
2022/03/14 08:17:13;;;;;;;11.30;7.10;;;10.60;99.90;;;;;;4983415;28;20050;-69
2022/03/14 08:19:39;;;;;;;8.85;7.20;;;10.60;99.90;;;;;;4970611;28;20061;-69
2022/03/14 08:22:05;;;;;;;9.77;7.60;;;10.60;99.90;;;;;;4979779;28;20039;-69
2022/03/14 08:24:32;;;;;;;9.57;7.88;;;10.50;99.90;;;;;;4981523;28;20065;-69
2022/03/14 08:26:59;;;;;;;12.10;9.07;;;10.50;99.90;;;;;;4954517;28;20054;-69
2022/03/14 08:29:24;;;;;;;10.85;8.55;;;10.40;99.90;;;;;;4983509;28;20047;-69
2022/03/14 08:31:50;;;;;;;10.90;7.85;;;10.20;99.90;;;;;;4972310;28;20291;-69
2022/03/14 08:34:16;;;;;;;8.93;7.28;;;10.40;99.90;;;;;;4970034;28;20043;-69
2022/03/14 08:36:42;;;;;;;9.73;7.93;;;10.50;99.90;;;;;;4986802;28;20061;-69
2022/03/14 08:39:09;;;;;;;10.60;8.00;;;10.50;99.90;;;;;;4984968;28;20050;-69
2022/03/14 08:41:36;;;;;;;10.88;8.38;;;10.50;99.90;;;;;;4969548;28;20083;-68
2022/03/14 08:44:06;;;;;;;10.43;8.98;;;10.30;99.90;;;;;;4981419;28;20138;-68
2022/03/14 08:46:32;;;;;;;9.68;8.68;;;10.40;99.90;;;;;;4969221;28;20102;-68
2022/03/14 08:48:58;;;;;;;10.50;8.50;;;10.50;99.90;;;;;;4976232;28;20126;-68
2022/03/14 08:51:25;;;;;;;12.43;8.98;;;10.50;99.90;;;;;;4971552;28;20505;-68
2022/03/14 08:53:52;;;;;;;10.27;8.80;;;10.60;99.90;;;;;;4976100;28;20067;-69
2022/03/14 08:56:17;;;;;;;11.32;8.27;;;10.50;99.90;;;;;;4954379;28;20105;-69
2022/03/14 08:58:43;;;;;;;9.95;8.52;;;10.60;99.90;;;;;;4979548;28;20130;-69
2022/03/14 09:01:11;;;;;;;12.10;8.93;;;10.50;99.90;;;;;;4976905;28;20088;-68
2022/03/14 09:03:37;;;;;;;11.60;9.35;;;10.30;99.90;;;;;;4977750;28;20047;-68
2022/03/14 09:06:03;;;;;;;9.93;8.20;;;10.30;99.90;;;;;;4974149;28;20093;-68
2022/03/14 09:08:29;;;;;;;10.82;9.02;;;10.30;99.90;;;;;;4979837;28;20054;-68
2022/03/14 09:10:55;;;;;;;10.63;9.05;;;10.50;99.90;;;;;;4972586;28;20065;-68
2022/03/14 09:13:23;;;;;;;10.52;9.43;;;10.50;99.90;;;;;;4974843;28;20405;-68
2022/03/14 09:15:50;;;;;;;10.82;9.30;;;10.40;99.90;;;;;;4970560;28;20054;-68
2022/03/14 09:18:16;;;;;;;10.32;9.23;;;10.40;99.90;;;;;;4983283;28;20047;-68
2022/03/14 09:20:42;;;;;;;12.10;9.82;;;10.50;99.90;;;;;;4971944;28;20077;-68
2022/03/14 09:23:09;;;;;;;11.65;9.82;;;10.30;99.90;;;;;;4976252;28;20339;-68
2022/03/14 09:25:34;;;;;;;12.13;9.65;;;10.30;99.90;;;;;;4953412;28;20050;-69
2022/03/14 09:28:01;;;;;;;11.98;9.73;;;10.50;99.90;;;;;;4986001;28;20055;-68
2022/03/14 09:30:27;;;;;;;12.95;9.98;;;10.40;99.90;;;;;;4979347;28;20054;-68
2022/03/14 09:32:54;;;;;;;11.75;9.98;;;10.50;99.90;;;;;;4991233;28;20085;-69
2022/03/14 09:35:22;;;;;;;12.18;10.00;;;10.40;99.90;;;;;;4952021;28;20054;-69
2022/03/14 09:37:49;;;;;;;12.60;10.20;;;10.20;99.90;;;;;;4975486;28;20519;-68
2022/03/14 09:40:20;;;;;;;13.27;10.32;;;10.20;99.90;;;;;;4977392;28;20057;-68
2022/03/14 09:42:59;;;;;;;13.80;10.80;;;10.20;99.90;;;;;;4959858;28;20038;-68
2022/03/14 09:45:26;;;;;;;13.13;11.02;;;10.20;99.90;;;;;;4968645;28;20129;-69
2022/03/14 09:47:59;;;;;;;12.93;10.98;;;10.00;99.90;;;;;;4981076;28;20051;-69
2022/03/14 09:50:37;;;;;;;15.90;11.70;;;10.10;99.90;;;;;;4973721;28;20054;-69
2022/03/14 09:53:07;;;;;;;14.05;11.27;;;9.90;99.90;;;;;;4981324;28;20065;-69
2022/03/14 09:55:42;;;;;;;15.13;11.65;;;9.80;99.90;;;;;;4976655;28;20054;-69
2022/03/14 09:58:13;;;;;;;19.70;14.65;;;9.80;99.90;;;;;;4978443;28;20046;-68
2022/03/14 10:00:40;;;;;;;22.38;16.15;;;9.60;99.90;;;;;;4974171;28;20060;-68
2022/03/14 10:03:06;;;;;;;20.80;15.88;;;9.60;99.90;;;;;;4982372;28;20039;-69
2022/03/14 10:05:32;;;;;;;25.00;17.27;;;9.50;99.90;;;;;;4980497;28;20058;-68
2022/03/14 10:07:58;;;;;;;24.08;17.30;;;9.50;99.90;;;;;;4982045;28;20051;-69
2022/03/14 10:10:24;;;;;;;28.33;17.38;;;9.40;99.90;;;;;;4976874;28;20057;-69
2022/03/14 10:12:53;;;;;;;23.92;17.13;;;9.40;99.90;;;;;;4978667;28;20050;-69
2022/03/14 10:15:26;;;;;;;23.48;16.95;;;9.50;99.90;;;;;;4970917;28;20292;-69
2022/03/14 10:17:56;;;;;;;22.40;16.30;;;9.40;99.90;;;;;;4978315;28;20058;-69
2022/03/14 10:20:24;;;;;;;26.98;15.63;;;9.30;99.90;;;;;;4973669;28;20146;-71
2022/03/14 10:22:50;;;;;;;23.10;14.75;;;9.30;99.90;;;;;;4979192;28;20138;-70
2022/03/14 10:25:19;;;;;;;22.52;14.93;;;9.20;99.90;;;;;;4978742;28;20051;-70
2022/03/14 10:27:49;;;;;;;20.83;13.95;;;9.30;99.90;;;;;;4963288;28;20514;-70
2022/03/14 10:30:47;;;;;;;21.75;14.40;;;9.30;99.90;;;;;;4982042;28;20274;-69
2022/03/14 10:33:13;;;;;;;17.60;11.68;;;9.30;99.90;;;;;;4991424;28;20046;-69
2022/03/14 10:35:42;;;;;;;19.90;12.23;;;9.20;99.90;;;;;;4973640;28;20054;-70
2022/03/14 10:38:10;;;;;;;19.00;11.38;;;9.20;99.90;;;;;;4982885;28;20093;-70
2022/03/14 10:40:40;;;;;;;22.38;12.25;;;9.30;99.90;;;;;;4980567;28;20283;-70
2022/03/14 10:43:21;;;;;;;21.65;12.75;;;9.20;99.90;;;;;;4985729;28;20057;-69
2022/03/14 10:45:47;;;;;;;23.98;13.02;;;9.20;99.90;;;;;;4973649;28;20050;-70
2022/03/14 10:48:13;;;;;;;22.95;12.80;;;9.30;99.90;;;;;;4961859;28;20049;-70
2022/03/14 10:50:41;;;;;;;25.10;13.73;;;9.20;99.90;;;;;;4955393;28;20046;-70
2022/03/14 10:53:19;;;;;;;25.92;14.38;;;9.20;99.90;;;;;;4977878;28;20039;-70
2022/03/14 10:55:47;;;;;;;29.75;14.77;;;9.30;99.90;;;;;;4967251;28;20216;-70
2022/03/14 10:58:19;;;;;;;35.63;15.52;;;9.30;99.90;;;;;;4982729;28;20053;-68
2022/03/14 11:00:51;;;;;;;33.97;16.05;;;9.40;99.90;;;;;;4966578;28;20058;-69
2022/03/14 11:03:22;;;;;;;35.97;16.73;;;9.50;99.90;;;;;;4980462;28;20370;-69
2022/03/14 11:05:48;;;;;;;30.60;15.43;;;9.60;99.90;;;;;;4973583;28;20070;-69
2022/03/14 11:08:26;;;;;;;26.52;14.93;;;9.60;99.90;;;;;;4979071;28;20050;-69
2022/03/14 11:10:52;;;;;;;26.73;13.60;;;9.60;99.90;;;;;;4970799;28;20054;-69
2022/03/14 11:13:18;;;;;;;30.63;14.55;;;9.70;99.90;;;;;;4981615;28;20066;-69
2022/03/14 11:15:44;;;;;;;24.38;15.23;;;9.70;99.90;;;;;;4977770;28;20054;-69
2022/03/14 11:18:10;;;;;;;30.45;15.27;;;9.80;99.90;;;;;;4961637;28;20055;-71
2022/03/14 11:20:37;;;;;;;25.13;13.35;;;9.70;99.90;;;;;;4974219;28;20042;-71
2022/03/14 11:23:04;;;;;;;27.05;13.95;;;9.70;99.90;;;;;;4983548;28;20045;-71
2022/03/14 11:25:30;;;;;;;26.60;14.05;;;9.80;99.90;;;;;;4972112;28;20047;-70
2022/03/14 11:27:56;;;;;;;23.83;11.93;;;9.90;99.90;;;;;;4980724;28;20485;-70
2022/03/14 11:30:25;;;;;;;24.00;12.85;;;9.90;99.90;;;;;;4970419;28;20051;-69
2022/03/14 11:32:51;;;;;;;26.27;13.50;;;9.80;99.90;;;;;;4985323;28;20078;-70
2022/03/14 11:35:18;;;;;;;23.50;12.13;;;9.80;99.90;;;;;;4958621;28;20105;-70
2022/03/14 11:37:46;;;;;;;21.60;12.65;;;9.80;99.90;;;;;;4970915;28;20422;-70
2022/03/14 11:40:14;;;;;;;23.90;12.13;;;9.80;99.90;;;;;;4980083;28;20044;-69
2022/03/14 11:42:40;;;;;;;22.65;11.43;;;9.70;99.90;;;;;;4962986;28;20034;-69
2022/03/14 11:45:07;;;;;;;21.95;12.35;;;9.70;99.90;;;;;;4985300;28;20081;-68
2022/03/14 11:47:34;;;;;;;26.48;13.20;;;9.60;99.90;;;;;;4970378;28;20126;-69
2022/03/14 11:50:01;;;;;;;22.02;12.98;;;9.60;99.90;;;;;;4989194;28;20038;-70
2022/03/14 11:52:39;;;;;;;26.45;12.93;;;9.60;99.90;;;;;;4980402;28;20053;-70
2022/03/14 11:55:17;;;;;;;27.40;13.40;;;9.70;99.90;;;;;;4981771;28;20056;-70
2022/03/14 11:57:44;;;;;;;23.83;14.65;;;9.60;99.90;;;;;;4953793;28;20047;-69
2022/03/14 12:00:24;;;;;;;26.75;16.02;;;9.60;99.90;;;;;;4979671;28;20047;-73
2022/03/14 12:02:53;;;;;;;26.30;15.35;;;9.60;99.90;;;;;;4955075;28;20059;-69
2022/03/14 12:05:31;;;;;;;28.25;16.70;;;9.70;99.90;;;;;;4970924;28;20043;-69
2022/03/14 12:07:57;;;;;;;24.75;14.68;;;9.60;99.90;;;;;;4977182;28;20288;-67
2022/03/14 12:10:34;;;;;;;22.77;14.00;;;9.80;99.90;;;;;;4972186;28;20058;-69
2022/03/14 12:13:04;;;;;;;26.63;14.57;;;9.80;99.90;;;;;;4972728;28;20050;-69
2022/03/14 12:15:41;;;;;;;30.90;16.70;;;9.70;99.90;;;;;;4972073;28;20134;-68
2022/03/14 12:18:26;;;;;;;28.77;14.73;;;9.90;99.90;;;;;;4978858;28;20039;-68
2022/03/14 12:20:59;;;;;;;25.80;14.32;;;9.90;99.90;;;;;;4971676;28;20050;-69
2022/03/14 12:23:33;;;;;;;23.05;14.52;;;9.90;99.90;;;;;;4987558;28;20062;-69
2022/03/14 12:26:00;;;;;;;27.20;15.25;;;9.80;99.90;;;;;;4973342;28;20047;-70
2022/03/14 12:28:36;;;;;;;22.38;14.63;;;10.00;99.90;;;;;;4975916;28;20121;-69
2022/03/14 12:31:04;;;;;;;23.73;14.82;;;10.00;99.90;;;;;;4969049;28;20435;-69
2022/03/14 12:33:44;;;;;;;28.33;14.38;;;10.00;99.90;;;;;;4980280;28;20034;-69
2022/03/14 12:36:25;;;;;;;25.23;14.23;;;10.00;99.90;;;;;;4964204;28;20046;-69
2022/03/14 12:39:06;;;;;;;23.40;14.00;;;10.00;99.90;;;;;;4978279;28;20375;-69
2022/03/14 12:41:33;;;;;;;23.08;13.57;;;10.10;99.90;;;;;;4966026;28;20069;-69
2022/03/14 12:43:59;;;;;;;26.05;13.65;;;10.20;99.90;;;;;;4976558;28;20318;-69
2022/03/14 12:46:26;;;;;;;25.20;14.15;;;10.20;99.90;;;;;;4973271;28;20086;-69